Catalog is used mainly by search engines, humans should use search.

# Name Created Size
1 Passion-HD Dani Daniels Country Girl 2021-07-19 195.8 MB
2 [Zero-Raws] Tari Tari - 04 (KBS 1280x720 x264 AAC).mp4 2021-07-19 281.9 MB
3 MILF Lessons - Preston Got Fucked - Phyllisha Anne 2021-07-19 228.8 MB
4 Ne-Yo - Year Of The Gentleman[2008][[email protected]]-antecho 2021-07-19 118.1 MB
5 Autocad Land Desktop 2007 2021-07-19 2.1 GB
6 WinAVI._iPodPSP3GPMP4_Video_Converter.rar 2021-07-19 3.5 MB
7 H8MACHINE - Discography - BY RABAUKEN38 2021-07-19 91.0 MB
8 The Return of Monte Cristo [FINAL] 2021-07-19 47.7 MB
9 Python_ebook.zip 2021-07-19 758.6 KB
10 Ass Fucked #6.avi 2021-07-19 1.2 GB
11 Bravo-Back_In_The_Building-RapHustle-2006 2021-07-19 79.3 MB
12 Midnight Club Los Angeles USA XBOX360-FATAL 2021-07-19 6.7 GB
13 The.7pm.Project.2010.08.09.WS.PDTV.XviD-FUtV - { www.SceneTime.com } 2021-07-19 182.8 MB
14 WWE Suvivor Serise HD 2008 2021-07-19 3.6 GB
15 CSI-Miami.Season 5 2021-07-19 8.8 GB
16 Impulse.Black.2011.Bluray.720p.MP4.mp4 2021-07-19 3.0 GB
17 Department (2012) - Mp3 - VBR - 320Kbps--AbhinavRocks {{-HKRG-}} 2021-07-19 54.6 MB
18 TrannyPack.12.03.08.Vanessa.Rafaella.Fucked.In.Pantyhose.XXX.720p.WMV-oRo[rbg] 2021-07-19 499.2 MB
19 The Fearless Freaks 20 Years Of Weird The Flaming Lips 1986-2006 2021-07-19 98.1 MB
20 finnix-ppc-89.1.iso 2021-07-19 125.0 MB
21 The.Lovely.Bones.2009.BRRip.2DISC.KvCD-Robo29[tRg Release] 2021-07-19 1.7 GB
22 ConvertXtoDVD 3.0.0.1 Final And Patch (12th May 2008) 2021-07-19 21.8 MB
23 Battlestar.Galactica.S04E14.Engsub.HDTV.XviD-0TV -Lindoff.avi 2021-07-19 368.1 MB
24 Delicious 2[H33T][Cybertek] 2021-07-19 22.1 MB
25 Okdo Document Converter Profession 3.4 [h33t][***] 2021-07-19 16.7 MB
26 Eric Church - Smoke A Little Smoke.avi 2021-07-19 67.3 MB
27 Beyond the Labyrinth - Chapter III Stories (2011) 2021-07-19 163.7 MB
28 HotLegsAndFeet.Samia.Duarte.XXX.720p.pornalized.avi 2021-07-19 1.4 GB
29 wrar380.Reg_win.exe 2021-07-19 1.2 MB
30 Nero Ultra 8.3.6.0 [Direct & Permanant Activation] With KeyMaker 2021-07-19 197.8 MB
31 Registry Clean Expert 4.72 + Serial 2021-07-19 3.1 MB
32 Auf.bösem.Boden.German.2007.DVDRip.XviD 2021-07-19 738.3 MB
33 [ www.Speed.Cd ] - Rizzoli.and.Isles.S03E07.720p.HDTV.X264-DIMENSION 2021-07-19 1.4 GB
34 Ci.Sta.Un.Francese.Un.Inglese.E.Un.Napoletano.2008.iTALiAN.DVDRip.XviD-Republic.avi 2021-07-19 733.6 MB
35 Jumper[2008]Soundtrack[John Powell] 2021-07-19 66.7 MB
36 {www.scenetime.com}Rocket.City.Rednecks.S01E08.Backwoods.By.Satellite.HDTV.XviD-PREMiER 2021-07-19 191.6 MB
37 Ultra Tag Editor 2 4 2 [h33t] [dinguskull] 2021-07-19 1.4 MB
38 MotoGP 08-Unleashed 2021-07-19 3.8 GB
39 Setup.exe 2021-07-19 504.0 MB
40 Zoe2_Pal_eng_ita_fra_ted_spa 2021-07-19 2.2 GB
41 Movie 43 (2013) 720P HQ AC3 DD5.1 (Externe Ned Eng Subs) 2021-07-19 3.3 GB
42 Travie_McCoy-Lazarus-2010-VAG 2021-07-19 55.1 MB
43 [Chihiro]ToLOVERu_-_Trouble_09_WS_[XviD][72258950].avi 2021-07-19 175.9 MB
44 Daddys.Girls.S02E01.WS.PDTV.XViD-NATV - { www.SceneTime.com } 2021-07-19 183.5 MB
45 Tabu loops 20 2021-07-19 676.9 MB
46 Magic Mike 2021-07-19 1.7 GB
47 WWE.Superstars.7.30.09.XviD.SDTV-HQ.mp4 2021-07-19 430.5 MB
48 blogsoccer318.pdf 2021-07-19 788.0 KB
49 R Kelly ft Usher - Same Girl [XviD] DaRmEtH.avi 2021-07-19 52.3 MB
50 Diary Of The Dead 2007 DvdRip H264-Raven2007 (374MB) 2021-07-19 393.3 MB
51 The Mentalist Season 1 2021-07-19 8.4 GB
52 Naruto_Gekitou_Ninja_Taisen_4_JAP_NGC-STINKYCUBE 2021-07-19 1.2 GB
53 EPL.2009.Blackburn.Rovers.Vs.West.Bromwich.Albion.Extended.Highlights.WS.PDTV.XviD-433 2021-07-19 584.2 MB
54 Overblood [U] [SLUS-00464].img 2021-07-19 700.5 MB
55 The.Lazarus.Project.DVDRip.XViD 2021-07-19 734.2 MB
56 M-Audio Pro Sessions Producer Heavy Guitars MULTiFORMAT DYNAMiCS [repack] 2021-07-19 281.1 MB
57 HISTORY OF POP AND ROCK MUSIC - part 257 2021-07-19 642.5 MB
58 Phat Farm 9 [princern] [split scene] 2021-07-19 1.5 GB
59 BBC.Horizon.2009.Whats.the.Problem.with.Nudity 2021-07-19 783.2 MB
60 HD_CHN-205 2021-07-17 2.7 GB
61 www.downloadarena.co-Computer Algebra An Algorithm-Oriented Introduction 2021-07-13 8.0 MB
62 Jessica Kyle - Horny Blonde With Glasses (22.04.2020).mp4 2021-07-02 233.1 MB
63 IPX-643.mp4 2021-07-02 2.4 GB
64 DCs.Legends.Of.Tomorrow.S06E08.1080p.WEB.h264-GOSSIP[TGx] 2021-06-29 3.2 GB
65 RJ279237.zip 2021-06-26 1.2 GB
66 [韩迷字幕组www.hanmi520.com][基督山小姐][第089集][韩语中字][720p].mp4 2021-06-18 400.7 MB
67 kpxvs.com_[原創] 丰乳肥臀的骚妇操起来真爽 2021-06-11 127.1 MB
68 Cum_Compilation_Part_11 2021-06-07 901.6 MB
69 The.invisible.man.2020.1080p-dual-lat-cine-calidad.com.mp4 2021-06-07 2.1 GB
70 2021.05.13_La_Liga_2020.21_R.36_Real_Valladolid_vs_Villarreal_CF_[rgfootball.net]_720p.50_RUS.mkv 2021-05-21 3.4 GB
71 Numb3rs Season1-6 (2005-2010) 2021-05-19 92.8 GB
72 HD_DDOB-091 2021-05-03 2.3 GB
73 一坊美女主播人气网红陈丝丝0428一多自慰大秀 学校教学楼厕所自慰 旁边还会来人十分刺激 2021-05-02 27.6 MB
74 Слесарь-электрик по ремонту электрооборудования.pdf 2021-04-29 9.6 MB
75 Cliffhanger.1993.REMASTERED.1080p.BluRay.x264.DTS-SWTYBLZ 2021-04-24 13.0 GB
76 鳄鱼男孩阿洛.1080p.BD中字[66影视www.66Ys.Co].mp4 2021-04-21 1.6 GB
77 [BakedFish] Kyuukyoku Shinka shita Full Dive RPG ga Genjitsu yori mo Kusoge Dattara - 01 [720p][AAC].mp4 2021-04-20 646.8 MB
78 PIYO104C 2021-04-16 4.3 GB
79 TVBOXNOW 律政強人 2021-04-12 510.1 MB
80 KUSE-007.mp4 2021-04-12 6.5 GB
81 Kadzhillioner.2020.WEB-DL.1080p-LQ.UNIONGANG.mkv 2021-04-11 5.9 GB
82 【更多高清电影访问 www.BBQDDQ.com】美国之旅2[英语中英字幕].Coming.2.America.2021.1080p.AMZN.WEB-DL.DDP5.1.H.264-MZABI 7.52GB 2021-04-08 8.1 GB
83 www.lyrics.lol - Its Clarkson on TV S02E01 480p x264-mSD 2021-04-05 123.2 MB
84 The.Shed.2019.1080p.WEB-DL.DD5.1.H264-CMRG 2021-04-03 4.4 GB
85 (SC40) [Search-Light (Kurosaki Kotora)] Trigger Happy (Soul Eater) 2021-04-03 27.8 MB
86 狼的孩子雨和雪 おおかみこどもの雨と雪 Ookami Kodomo no Ame to Yuki 2012 [BD 1920x1080 H264-中文字幕].mkv 2021-03-31 2.7 GB
87 PureTaboo.21.03.30.Victoria.Voxxx.One.Mans.Trash.XXX.1080p.MP4-WRB[rarbg] 2021-03-30 3.3 GB
88 Cherish.the.Day.S01E06.WEBRip.x264-XLF[rarbg] 2021-03-22 375.0 MB
89 [ OxTorrent.tv ] Zack.Snyders.Justice.League.2021.FRENCH.720p.WEB.H264-EXTREME 2021-03-21 7.3 GB
90 GALINDEZ v KATES 2 Edit.mpg 2021-03-19 3.2 GB
91 The.Sinner.S03E05.1080p.rus.LostFilm.TV.mkv 2021-03-19 2.6 GB
92 Howard Stern - 20200909 - Porn In Real Life; Jane Fonda.mp3 2021-03-14 80.6 MB
93 Ramayan (1987) Season 1 Complete Hindi 720p DVDRip - ExtraMovies 2021-03-13 26.9 GB
94 Deep.Enigma-DARKZER0 2021-03-13 433.4 MB
95 Lethal.Weapon.S02E09.www.subtorrents.com.avi 2021-03-13 336.3 MB
96 Banana.Fish.S01E09.Save.Me.The.Waltz.720p.WEB.h264-PLUTONiUM[eztv].mkv 2021-03-13 214.5 MB
97 years.and.years.s01e05.hdtv.x264-mtb[eztv].mkv 2021-03-13 295.8 MB
98 the core 1080p.mkv 2021-03-13 11.2 GB
99 Jeff Wheeler - The Grave Kingdom 02 - The Buried World 2021-02-20 673.0 MB
100 HMGL097C 2021-02-09 1.4 GB
101 Marketplace.S47E06.Are.Noisy.Restaurants.Harmful.to.Your.Health.480p.x264-mSD[eztv].mkv 2021-01-03 172.5 MB
102 [AniStar.org] Kimetsu no Yaiba - 17 MVO [720p].mkv 2020-12-31 447.8 MB
103 FONE128 2020-12-29 1.7 GB
104 换妻.春色漾荡高清修复版 官方中文字幕.mp4 2020-12-21 2.1 GB
105 One Direction - Made In The A.M. [Deluxe Edition] [[email protected]] [JRR] [truHD] 2020-12-10 176.5 MB
106 [幻想乐园 原创发布][Hxly9.Com]Running Man.E520.200913.修正版.mp4 2020-10-19 1.6 GB
107 PornMegaLoad.16.02.18.Tracy.Licks.A.Special.Delivery.For.Tracys.Pussy.XXX.SD.MP4-RARBG 2020-10-08 170.0 MB
108 blk-442 2020-10-02 1.5 GB
109 (C93) [ウシノマルヤキ (うしのみや)] 委員長の発情スイッチ (オリジナル).zip 2020-09-16 107.3 MB
110 MOO2.exe 2020-09-09 325.6 MB
111 TVBOXNOW 財經透視 2020-09-08 163.6 MB
112 Left 4 Dead NoSteam Repack by Pioneer 2020-07-25 3.3 GB
113 熟女姐姐的木耳蛮黑了,还算湿润 2020-07-18 108.5 MB
114 StarDog and TurboCat [1080p][Latino][wWw.EliteTorrent.NL] 2020-06-25 1.8 GB
115 Le Forestier chante Brassens - L'integrale ' 1er et 2eme cahiers (2005) 2020-06-07 3.2 GB
116 20191008f.(HD1080P)(monashiman)(fc1174095.s3a0thvh)【拘束xアナル】清楚で淫乱サラのボディストッキング調教 真面目な眼鏡女子リケジョの夜の顔 2020-06-01 1.8 GB
117 [JTBC] 비긴 어게인.E11.170903.720p-NEXT.mp4 2020-05-30 1.7 GB
118 TrueAnal 20 02 07 Adira Allure XXX 1080p MP4-KTR 2020-02-07 5.0 GB
119 www.IPTV.memorial - DeepThroatSirens 20 01 30 Alexa Nova XXX 1080p MP4-KTR 2020-01-31 4.1 GB
120 The Living Room S08E37 480p x264-mSD 2019-12-07 357.2 MB
121 KENDRA'S STEAMY THREESOME SD 2019-11-18 252.3 MB
122 How Much Love Ho! ? How Much Is An Amateur Beautiful Woman Pay 2019-04-23 3.2 GB
123 DaneJones.19.04.22.Lovita.Fate.XXX.1080p.MP4-KTR[XvX] 2019-04-22 1.0 GB
124 Sometimes.I.Share.XXX.DVDRip.x264 2019-01-01 1.8 GB
125 Elliot The Littlest Reindeer 2018 Movies DVDRip x264 5.1 MSubs with Sample ☻rDX☻ 2018-11-29 849.9 MB
126 Murphy.Brown.S11E06.720p.HDTV.x264-AVS[ettv] 2018-11-02 458.9 MB
127 SCPX-303.mp4 2018-09-25 2.1 GB
128 The.Dead.Files.S11E11.Dark.Thoughts.iNTERNAL.XviD-AFG 2018-04-23 365.0 MB
129 The.Executioners.2017.HDRip.x264.AAC-eXceSs 2018-04-01 769.5 MB
130 POVD - Kristen Scott - Steak and BJ Day 2018-03-21 483.1 MB
131 Arrow.S06E12.iNTERNAL.480p.x264-mSD 2018-02-02 142.5 MB
132 Blindspot.S03E11.HDTV.x264-SVA[ettv] 2018-01-27 287.6 MB
133 [HorribleSubs] Yuru Camp - 01 [480p].mkv 2018-01-04 153.9 MB
134 Czech VR Casting 086 - Eva in VR Casting 2017-12-07 4.3 GB
135 MommyBlowsBest Jasmine Jae 2017-12-05 148.1 MB
136 KTR-019.576p.mp4 2017-12-02 1.5 GB
137 www.Torrenting.com - MTV.European.Music.Awards.2017.HDTV.x264-PLUTONiUM 2017-11-13 817.6 MB
138 [WebCam] Ukrainian Couple (2017) 2017-08-06 222.1 MB
139 Roleplay divorce mommy makes up for lost time pt1 2017-07-30 110.4 MB
140 Bill.Nye.Saves.the.World.S01E12.720p.HEVC.x265-MeGusta 2017-07-24 258.8 MB
141 Trishas.Southern.Kitchen.S04E01.Retro.TV.Dinners.HDTV.x264-W4F 2017-07-09 182.5 MB
142 The Twilight Of Civilizations 1of2 Angkor 1080p x264 AAC HDTV MV 2017-07-05 1.6 GB
143 Gracie And Rachel - Gracie And Rachel 2017 2017-06-29 90.3 MB
144 Wood Magazine - July 2017 - True PDF - [ECLiPSE] 2017-04-30 31.2 MB
145 Brake's Adventures Return 1080p x265(Valentina Nappi, Julio Gome 2017-03-31 346.1 MB
146 www.Torrenting.com - Power.Rangers.S24E05.HDTV.x264-W4F 2017-02-26 262.7 MB
147 [HotAndMean] Kristina Rose, Veronica Rodriguez (Bet Your Ass 2 - 2016-07-28 350.9 MB
148 GirlsDoPorn - Episode 53 - Nicole 18 Years Old XXX 720p 2016-06-12 1.0 GB
149 JesseLoadsMonsterFacials 16 03 03 Lyra Louvel XXX 1080p MP4-KTR 2016-03-03 838.9 MB
150 3D Fiends - BDSM World 1-6 {Almerias} 2015-11-16 103.4 MB
151 Nicole Aniston (All About That Lace) 2015-10-30 1.5 GB
152 Heroes of Might & Magic III – HD Edition [R.G. Mechanics] 2015-10-11 999.3 MB
153 Vendetta (2015) 1080p x264 DD5.1 EN NL Subs 2015-08-09 2.4 GB
154 My Million Dollar Invention Series 1 6of8 Life and Death 720p x2 2015-08-04 1.1 GB
155 Trust.Me.Im.A.Doctor.S03E03.XviD-AFG 2015-07-30 594.2 MB
156 [AnimeRG] Prison School - 03 [1080p] 2015-07-24 797.2 MB
157 Guardians of the Galaxy 2014 1080p IMAX BluRay x264-KRAVE 2014-11-22 8.3 GB
158 Una Piccola Impresa Meridionale (2013) BRrip x264 Ac3 Italian 2014-11-14 1.8 GB
159 The Walking Dead S05E03 1080p WEB-DL DD5.1 H.264 Cyphanix DUAL 2014-10-29 1.8 GB
160 Saving God 2008 1080p BluRay x264 AAC - Ozlem 2014-10-27 1.6 GB
161 The Education Of A Young Maid - Ava Courcelles.mp4 2014-08-04 141.7 MB
162 Diners.Drive-Ins.and.Dives.S19E13.Righteous.Bites.PDTV.x264-JIVE 2014-06-23 222.4 MB
163 Carriers.2009.DvDRip_toAVI Pt-Br 2014-03-15 345.9 MB
164 The CRC Handbook of Mechanical Engineering 2nd Edition 2014-02-21 29.9 MB
165 DoctorAdventures - Devon (Anal Is The Best Medicine / Brazzers) 2013-12-08 392.1 MB
166 [HorribleSubs] Kyousougiga - 02 [720p].mkv 2013-10-28 369.3 MB
167 TSSeduction - Yasmin Lee & Sebastian Keys - 25.09.13 2013-09-26 1.4 GB
168 BigTitsInSports.13.08.10.Liza.Del.Sierra.Trainer.To.The.Stars.XX 2013-08-10 2.5 GB
169 Emmerdale.2013.05.23.830pm.mp4 2013-05-25 238.5 MB
170 Escape from Sobibor (1987) (Eng)(NL sub) LD 2013-01-15 4.0 GB
171 Lay The Favorite 2012 VODRip XviD-DOSE 2012-11-06 739.4 MB
172 POtHS 2 - Bible Study - Part 112 - Mike Hoggard - Whos Playing God 2012-10-15 4.4 GB
173 Red Lights.2012.BRRIP.XVID.AbSurdiTy 2012-09-17 738.7 MB
174 WowGirls - The Woman In The Middle - Klara [1080p].mp4 2012-08-29 1.5 GB
175 Jimmys Food Factory Season 3 S03E01-E02 (2012) xvid avi 2012-07-03 498.3 MB
176 Hainan.Adventure.with.Nigel.Marven.PDTV.XviD.AC3.MVGroup.org.avi 2012-06-19 782.0 MB
177 Love Or Lust - Chanel Preston.avi 2012-05-23 393.3 MB
178 Langman's Medical Embryology 12th ed. - T. Sadler (Lippincott, 2012) BBS.pdf 2012-05-23 56.4 MB
179 Rye Rye - Boom Boom (The Remixes) [EP-2012] {320 kbps} 2012-04-08 85.7 MB
180 Mass Effect 3 Readiness Level Cheat (Works on all PC copies) 2012-03-31 740.9 KB
181 Wie is de Mol Seizoen 12 Aflevering 1 1080p 2012-01-06 3.1 GB
182 27. FIFA CWC - SF - Yokohama (15-12-11) Al Sadd-FC Barcelona 2011-12-19 1.0 GB
183 The Proposal *2009* [720p.BluRay.x264.iNFAMOUS-miguel] [ENG] 2011-11-28 4.7 GB
184 The Lies Boys Tell 1994 DVDRIP XVID AC3 BHRG 2011-07-22 1.5 GB
185 That.Metal.Show.S03E03.Chris Jericho.avi 2011-07-14 261.7 MB
186 The Closing Of Winterland_ December 31, 1978 2011-05-03 469.0 MB
187 goljan 2011-03-30 1.7 GB
188 Team Moraeus - TV Orsa 2010-05-24 4.5 GB
189 Sex and Drugs and Rock and Roll (2010) DVDRip XviD DivXNL-Team(d 2010-05-24 731.3 MB
190 The Washington Times Weekly - September 28 2009 (Malestrom) 2009-09-27 4.3 MB
191 Autosputnik v3.2.7 Build 26820 WM6.0 BOX Yandex 2009-07-01 41.2 MB
192 Worst Week 1x11 HDTV DVB Spanish 2009-05-16 180.8 MB
193 Discovery.Channel.Future.Weapons.Series2.01of13.Search.And.Destroy.XviD.MP3.avi 2009-02-21 366.5 MB
194 Stephen King - Dolores Claiborne 2008-11-23 534.0 MB
195 Blind.Dating.LIMITED.R5.XViD-PUKKA 2008-11-07 745.2 MB
196 NaughtyWeddings.Natasha.Starr n/a 713.7 MB
197 Adobe Photoshop cc 2014 15.2.2 [Mac Os X] [coque599] n/a 946.7 MB
198 01 Daniel X 5 - Armageddon.m4b n/a 279.4 MB
199 Black Spiderman Jigsaw Puzzlegame Free Download - -.zipBlack Spiderman Jigsaw Puzzlegame Free Download - - n/a 535.0 KB
200 110614_917 n/a 953.4 MB
201 Time Life - Flower Power - California Dreamin' n/a 99.7 MB
202 Lion 2016 720p BrRip x264 - AFG n/a 741.8 MB
203 The Big Bang Theory S010E01 2016 HDTV x264 - TiTAN n/a 316.7 MB
204 Grand.Theft.Auto.3-DEViANCE n/a 161.4 MB
205 hkj-02.11.2014-720p.flv n/a 255.2 MB
206 Dr.Phil.Show.2017.04.17.HDTV.x264.mp4 n/a 223.7 MB
207 CorelDRAW Graphics Suite X8 v18.1.0.661 Special Edition Multilingual [Androgalaxy] n/a 6.1 MB
208 Kanteletar[tfile].rtf n/a 4.5 MB
209 Outlast-RELOADED n/a 346.7 MB
210 Swiss Army Man 2016 720p BrRip x264 - DONE n/a 741.8 MB
211 The.Dressmaker.2016.1080p.BluRay.x264 - AC3 n/a 1.0 GB
212 346.pacopacomama-012717_016 n/a 893.2 MB
213 avop-357 n/a 1.3 GB
214 Chicago_Fire_Season_5 n/a 3.1 GB
215 Lejtenant.2016.WEB-DL.(1080p).mkv n/a 3.5 GB
216 MFX-1052 - My Favorite Teacher. - Scat, piss, vomit.avi n/a 782.0 MB
217 [AniMaunt.ru] Masou Gakuen HxH n/a 3.5 GB
218 12 校长编号004-96年性感苗条大学生 各种高难度动作从床上操到沙发上 胸部快把制服撑爆 操的巨乳不停摇晃 n/a 493.2 MB
219 [NubileFilms NubilesNetwork] Azazai aka Zazie Skymm (My Muse 24.02.2017) n/a 182.6 MB
220 After Hours - Martin Scorsese Thriller Eng Subs 720p [H264-mp4] n/a 1.5 GB
221 realdiva_5236 n/a 364.5 MB
222 Logic Pro X 10.3.3 OS X Re n/a 18.1 MB
223 dr2004-02-04.flac16 n/a 275.3 MB
224 WinRAR 4.00 32Bit And 64Bit Full-Version {blaze69} n/a 10.6 MB
225 Ghostbusters 2016 720p BrRip x264 - RARBG n/a 741.8 MB
226 Ирина Салтыкова - Дискография n/a 1.8 GB
227 F.A.Cup.Manchester.United.Reading.2017.SATRip-mufc n/a 3.5 GB
228 !RainS デート・ア・ライブ (BD-SPEC) n/a 25.2 GB
229 Pupett.com site rip part 1 of 2 n/a 6.7 GB
230 Celemony Melodyne Editor v2.2.2.2 MacOSX-R2R X deepstatus n/a 10.6 MB
231 [email protected]@p色の刻 - 巻乃完 n/a 246.8 MB
232 Farming.Simulator.17-RELOADED n/a 155.1 MB
233 Dawn of War - Soulstorm (Mega Pack).iso n/a 18.0 GB
234 7.Hours.to.Go.2016.Hindi.720p.DVDRiP.999MB.ShAaNiG.mkv n/a 1.0 GB
235 The Last Man On Earth S03E08 2016 HDTV x264 - ETRG n/a 329.7 MB
236 Fear the Walking Dead S03E11 2017 HDTV x264 - DIAMOND n/a 342.2 MB
237 Smash Mouth n/a 611.1 MB
238 Foxit Advanced PDF Editor v3.1.0 + Crack-XenoCoder n/a 13.8 MB
239 2 Chainz - No Lie (Feat. Drake) .mp3 n/a 7.8 MB
240 Killergram.16.11.04.Lexi.Ryder.A.Dogging.Return.XXX.SD.MP4-RARBG n/a 185.0 MB
241 [Staxus.com - Raw.staxus.com] Pyjama Party For Two Results In A Spunk-Soaked Fuckathon For These Horny Teens! (Jaxon Radoc & Xander Hollis).mp4 n/a 744.1 MB
242 Prey-CPY n/a 367.8 MB
243 OralQueens.16.02.21.Kylie.Kalvetti.XXX.1080p.MP4-KTR n/a 1.3 GB
244 2293bc7d90f28051b5ee117b7bbead83 n/a 89.8 KB
245 ADOBE CS6.0 MASTER COLLECTION [WIN]-XFORCE + [MAC] n/a 129.3 MB
246 CorelCAD 2017.0 Build 17.0.0.1310 FINAL + Crack n/a 379.1 MB
247 Vikings S04E17 2016 HDTV x264 - AFG n/a 329.7 MB
248 [email protected]@-1pondo-121109_730 n/a 1.2 GB
249 Megan.Blue.mp4 n/a 222.4 MB
250 WANZ404cmp4 n/a 1.2 GB
251 V.Golovachev_-_Magacitly.2003.fb2 n/a 458.5 KB
252 SPRD692AVI n/a 1.2 GB
253 EA Sapphira.A.Sapphira n/a 162.1 MB
254 NPS318 n/a 2.7 GB
255 Chris Liebing - AM-FM n/a 13.1 GB
256 AJ Applegate & Mea Melone 4on2 anal fuck fest & double penetration SZ1557.mp4 n/a 735.7 MB
257 Driver Magician 4.6 - Final + Keygen-F4CG n/a 17.6 MB
258 Secret Sphere - The Nature of Time (2017) n/a 135.4 MB
259 Guts and Glory v0.5.2 n/a 2.2 GB
260 Baldur s Gate 2 Complete - MAC OS X - GOG n/a 10.9 MB
261 Image-Line Plugins Pack 2016.05.02 OS X n/a 22.7 MB
262 toyko hot k1458 n/a 561.9 MB
263 Toni Erdmann 2016 n/a 851.5 MB
264 (同人CG集) [オールドスクールアカデミー] 強化スーツを脱がさないで「昭和」.zip n/a 163.0 MB
265 07.mp4 n/a 15.9 MB
266 170105-湖南女孩和大鸡巴老外男友草逼干的女孩要死淫叫不断-7 n/a 1.4 GB
267 Digital Anarchy Primatte Chromakey 5.1.2 n/a 11.8 MB
268 (同人CG集) [NamelessZero (識)] 誘拐陵辱.zip n/a 82.7 MB
269 Lethal.Weapon.S02E09.XviD-AFG n/a 472.0 MB
270 TSPussyHunters - Venus Lux and Alura Jenson (07 Nov 2014).mp4 n/a 333.7 MB
271 Безумный Макс. Дорога ярости.avi n/a 823.2 MB
272 [TUZI][Clockwork Planet][12][BIG5][1280X720][END].mp4 n/a 274.6 MB
273 [21 Sextury] Asspirin 12 (2016) NEW (Split Scenes) n/a 2.1 GB
274 www.youiv.pw 原创 EPXE-5086 n/a 1.3 GB
275 Won't Get Fooled Again n/a 119.4 MB
276 Microsoft Office Pro. Plus 2013 VL Edition x86 x64 FRENCH n/a 1.7 MB
277 1997 - По улочкам Арбата n/a 390.5 MB
278 Welty - Fundamentals of Momentum Heat and Mass Transfer 6th Edition c2015 txtbk.pdf n/a 15.0 MB
279 Ableton Live 9 Suite 9.0.2 Mac OS X (64 bit) iSO n/a 23.3 MB
280 Amateurs - First Look - Melody Watson.854x480.mp4 n/a 379.0 MB
281 29.StepMomLessons - Tina Blade, Tina Kay - My Secret Folder n/a 1.7 GB
282 Slave licks dirty Flip Flops .mp4 n/a 36.1 MB
283 (成年コミック) [サガノヘルマー] 母娘れいど.zip n/a 114.7 MB
284 Hitman.REPACK-CPY n/a 367.5 MB
285 The Cure 1979-1989 - An Independent Critical Review (2xDVD) n/a 1.8 GB
286 Car.Wash.1976.1080p.BluRay.x264-PSYCHD[rarbg] n/a 10.6 GB
287 The Tailor of Inverness - Matthew Zajac.epub n/a 3.1 MB
288 Shizuku Amayoshi CRC-104.avi n/a 1.5 GB
289 Font - Adec n/a 13.2 KB
290 Sarbjit (2016) Hindi 720p DvDRip HEVC x265 AAC MAXPRO n/a 1.0 GB
291 Family Guy s14e16 The Heartbreak Dog 1080p HDTV H264 [MOV].mov n/a 2.5 GB
292 [Animeaak.com] Fairy Tail S2 - 101 [720p].mkv n/a 150.1 MB
293 DCs.Legends.of.Tomorrow.S01E04.HDTV.x264-LOL (XrepTV) n/a 285.8 MB
294 피아노19 n/a 263.4 MB
295 LegalPorno - Lara Frost fucked hard four dicks 111220.mp4 n/a 1.0 GB
296 SPRD-630C n/a 1.1 GB
297 Capitao America 2 O Soldado Invernal XviD Dublado HDTS.avi n/a 867.9 MB
298 Janice Griffith_1080.mp4 n/a 1.3 GB
299 pacopacomama-052516_001-FHD n/a 1.9 GB
300 [FHD]mide-264.mp4 n/a 6.7 GB
301 Человек из стали. BDRip-AVC.mkv n/a 780.1 MB
302 3mily ustin Cum Eating Cuckolds [email protected] n/a 127.6 MB
303 Sausage.Party.2016.2160p.BluRay.REMUX.HEVC.DTS-HD.MA.TrueHD.7.1.Atmos-FGT n/a 47.0 GB
304 [DreamStar][ShurikenSentai][31-35][1428X810] n/a 2.2 GB
305 BrazzersExxtra.16.07.03.Melissa.Moore.Your.Princi-Pal.XXX.1080p.MP4-KTR[N1C] n/a 3.0 GB
306 Shaunies.Home.Court.S01E02.All.at.My.Expense.HDTV.x264-CRiMSON - [SRIGGA] n/a 184.7 MB
307 실화극장 그녀 7화 여자 애액 핥아먹기.mp4 n/a 1.5 GB
308 Uno.Para.Todas.3x01.HDTV.XviD.[www.DivxTotaL.com].avi n/a 139.9 MB
309 The.Mindy.Project.S04E08.720p.HDTV.x264-KILLERS[eztv].mkv n/a 554.5 MB
310 javset.com-HODV-20499.avi n/a 1.3 GB
311 The.Snow.Queen.2.2014.BRRip.XviD.AC3-RARBG n/a 1.2 GB
312 [AgusiQ-TorrentS.pl] Karbala.2015.PL-KiT [AgusiQ] n/a 734.7 MB
313 www.youiv.pw 原创 MIST-041 野々宮ミカ 従順愛玩 n/a 1.9 GB
314 (C93) [かくこのか (めの子)] らくがき紙 (よろず).zip n/a 8.9 MB
315 Sergei Prokofiev - 2006 - The Complete Symphonies (London Symphony Orchestra, Valery Gergiev) n/a 1.1 GB
316 STARS-056.mp4 n/a 6.0 GB
317 [Kirion] Inu x Boku SS [rework] n/a 3.5 GB
318 Fences.2016.1080p.BluRay.H264.AAC-RARBG n/a 2.9 GB
319 869- [LadyboyGold] Alice - HJ & Bareback Creampie (18.11.2016) 720p rq.mp4 n/a 1.3 GB
320 Ado Gruzza - Il Metodo Distribuito [400dpi, Scan, JPEG2000].pdf n/a 205.8 MB
321 The Day After Tomorrow - L'alba del giorno dopo (2004) BDRip 720p HEVC ITA ENG AC3 ITA ENG Sub PirateMKV.mkv n/a 4.1 GB
322 The.Whispers.S01E01.SD.HDTV.2CH.x265.HEVC-PSA.mkv n/a 97.4 MB
323 The Case for Christianity Answer Book- Lee Strobel n/a 1.1 MB
324 big boobs milf fucked by son in law [email protected] n/a 127.5 MB
325 MarvelS Daredevil - Temporada 1 [HDTV 720p][Cap.108][V.O. Subt. Castellano] n/a 2.1 GB
326 MIGD-642.wmv n/a 1.9 GB
327 Wolf Hoffmann - Headbangers Symphony (2016)[FLAC] n/a 370.8 MB
328 Boar_2017.avi n/a 1.7 GB
329 Штурм белого дома BDRip-AVC 60fps R.G. HD-Films.mkv n/a 4.2 GB
330 Послезавтра.mkv n/a 781.4 MB
331 Mozart.On.Tour.03.of.13.Milan.and.Bologna.DVDrip.x264.AAC.MVGroup.Forum.mkv n/a 1.1 GB
332 세상은 넓다.140430.매혹적인 정열의 나라 스페인.HDTV.H264.720p-HEAD.avi n/a 380.5 MB
333 [susun]一本道 相葉りか~超級名模第101彈 n/a 1.2 GB
334 [GIGA][GEXP14]Witch Beautiful Girl Fighter Fontaine 01.wmv n/a 299.1 MB
335 Ne_poyman_ne_vor_HDRip_[scarabey.org].avi n/a 1.6 GB
336 Filipp.Kerr.Djin.v.Vavilonskom.Podzemelye.2007.MP3.96kbps n/a 457.7 MB
337 Muck.2015.HDRip.XviD.AC3-EVO n/a 1.6 GB
338 Veronika.Mars.2014.P.HDRip.1400M.avi n/a 1.5 GB
339 Gravity n/a 611.1 MB
340 Vesennie.nadezhdy.2012.D.HDRip-AVC.AAC.-WazZzuP.mkv n/a 782.0 MB
341 Symphonic Odysseys - Tribute to Nobuo Uematsu n/a 228.0 MB
342 Noah.2014.3D.1080p.BluRay.Half-SBS.DTS.x264-HDAccess n/a 18.9 GB
343 Was_Napoleon_murdered_[tfile.ru].avi n/a 370.7 MB
344 Charlie Hebdo N°1177 PDF (Parution, le jour de l'attentat).By.Hadopix.pdf n/a 15.3 MB
345 Sibelius Violin Concerto Op.47 (1935) Heifetz Beecham 2006 n/a 67.5 MB
346 Kathryn Kelly ~ Death Dwellers MC Series #1.5 & #2 n/a 650.8 KB
347 KAWD-501,.wmv n/a 1.4 GB
348 Dennis DeYoung - 2007 - One Hundred Years From Now[NL+].wv.iso.wv n/a 488.5 MB
349 IllumiNations - The original - Martins Ultimate Tribute.wmv n/a 361.3 MB
350 All Worlds Video - Father Figure 2.avi n/a 304.6 MB
351 Nightmare 2 - La Rivincita (1985)+ Bonus30m.ita.eng.sub.ita.end.bonus.26m.MIRCrew n/a 1.7 GB
352 SMA-392 n/a 1.3 GB
353 Avendro_osen_zima_2013-2014_[tfile.ru].pdf n/a 97.6 MB
354 Just_2x01.avi n/a 385.8 MB
355 Vstre4a_1984.avi n/a 169.8 MB
356 Kate Bush - The Whole Story [1986][FLAC][RoBobEn] n/a 258.1 MB
357 Davidova (I).pdf n/a 14.7 MB
358 Zhenitba.Balzaminova.1964.DVDRip.avi n/a 1.5 GB
359 BG RUS.iso n/a 4.2 GB
360 SKYHD-055-720P n/a 4.4 GB
361 200 Аромат хитов Nescafe 2008 n/a 733.5 MB
362 King Bolete - A Deal With the Dark Ones (2018) n/a 75.5 MB
363 Pjatniza Vecher RTR.avi n/a 1.5 GB
364 Digital Tutors - Creating a Portfolio-Ready Demon Concept in ZBrush n/a 2.8 GB
365 Hrvatski - Swarm & Dither (FLAC) n/a 351.6 MB
366 Круглов А.В. - Чудесная свеча - 2015.pdf n/a 2.7 MB
367 Digital Juice - VideoTraxx HD 1 n/a 189.9 GB
368 Maddy O Reilly - Big Booty White Girl Gets Hard Anal HD 720p n/a 1.0 GB
369 JUMEAU_[YTN] by dexter lex.avi n/a 781.1 MB
370 Dragon Naturally Speaking 12 Premium Edition n/a 26.2 MB
371 [ www.Speed.cd ] -Transporter.The.Series.S02E07.720p.HDTV.x264-2HD n/a 1.1 GB
372 Photo Calendar Studio 2014 1.13 Multilingual + Serial n/a 41.3 MB
373 The.Stranger.Within.2013_HDRip__[scarabey.org].avi n/a 1.6 GB
374 Ishiguro, Kazuo n/a 916.8 KB
375 Pacopacomama-052820_309-HD n/a 1.6 GB
376 The.Alaska.Triangle.S01E06.480p.x264-mSD[eztv.re].mkv n/a 194.5 MB